createdAt,value
2023-03-26T00:01:25.183Z,10.49
2023-03-26T00:03:54.874Z,10.60
2023-03-26T00:06:25.045Z,10.50
2023-03-26T00:08:53.150Z,10.40
2023-03-26T00:11:22.094Z,10.44
2023-03-26T00:13:49.466Z,10.34
2023-03-26T00:16:18.684Z,10.33
2023-03-26T00:18:46.468Z,10.42
2023-03-26T00:21:17.319Z,10.37
2023-03-26T00:23:44.944Z,10.32
2023-03-26T00:26:12.047Z,10.24
2023-03-26T00:28:41.570Z,10.17
2023-03-26T00:31:14.484Z,10.14
2023-03-26T00:33:42.138Z,10.07
2023-03-26T00:36:12.143Z,10.01
2023-03-26T00:38:39.499Z,10.00
2023-03-26T00:41:17.779Z,10.00
2023-03-26T00:43:48.966Z,9.89
2023-03-26T00:46:17.671Z,9.87
2023-03-26T00:48:46.054Z,9.86
2023-03-26T00:51:18.710Z,9.83
2023-03-26T00:53:47.561Z,9.73
2023-03-26T00:56:14.853Z,9.69
2023-03-26T00:58:42.187Z,9.60
2023-03-26T01:04:06.836Z,9.55
2023-03-26T01:06:39.107Z,9.47
2023-03-26T01:09:17.382Z,9.35
2023-03-26T01:11:45.075Z,9.37
2023-03-26T01:14:21.435Z,9.28
2023-03-26T01:17:00.475Z,9.23
2023-03-26T01:19:48.383Z,9.14
2023-03-26T01:22:21.090Z,9.06
2023-03-26T01:24:53.851Z,9.06
2023-03-26T01:27:41.183Z,8.99
2023-03-26T01:30:24.822Z,8.81
2023-03-26T01:33:14.402Z,8.67
2023-03-26T01:36:09.453Z,8.72
2023-03-26T01:38:40.410Z,8.62
2023-03-26T01:41:29.029Z,8.73
2023-03-26T01:44:08.210Z,8.67
2023-03-26T01:46:38.116Z,8.62
2023-03-26T01:49:06.177Z,8.51
2023-03-26T01:51:35.623Z,8.48
2023-03-26T01:54:06.018Z,8.58
2023-03-26T01:57:11.681Z,8.44
2023-03-26T02:00:12.276Z,8.39
2023-03-26T02:03:02.019Z,8.45
2023-03-26T02:05:39.323Z,8.32
2023-03-26T02:08:16.842Z,8.32
2023-03-26T02:10:47.885Z,8.34
2023-03-26T02:13:15.142Z,8.30
2023-03-26T02:16:04.806Z,8.24
2023-03-26T02:18:39.089Z,8.13
2023-03-26T02:21:12.521Z,8.10
2023-03-26T02:23:47.149Z,8.13
2023-03-26T02:26:16.834Z,8.15
2023-03-26T02:28:43.686Z,8.26
2023-03-26T02:31:11.218Z,8.29
2023-03-26T02:33:38.181Z,8.33
2023-03-26T02:36:06.200Z,8.33
2023-03-26T02:38:35.322Z,8.26
2023-03-26T02:41:05.181Z,8.24
2023-03-26T02:43:31.965Z,8.15
2023-03-26T02:45:58.971Z,8.09
2023-03-26T02:48:26.388Z,8.12
2023-03-26T02:50:54.787Z,8.12
2023-03-26T02:53:24.331Z,8.07
2023-03-26T02:55:51.235Z,8.03
2023-03-26T02:58:18.077Z,7.97
2023-03-26T03:00:46.999Z,8.00
2023-03-26T03:03:17.348Z,7.87
2023-03-26T03:05:48.614Z,7.77
2023-03-26T03:08:18.510Z,7.80
2023-03-26T03:11:09.165Z,7.75
2023-03-26T03:13:36.090Z,7.82
2023-03-26T03:16:03.173Z,7.75
2023-03-26T03:18:30.016Z,7.87
2023-03-26T03:20:57.150Z,7.77
2023-03-26T03:23:24.293Z,7.64
2023-03-26T03:25:52.978Z,7.63
2023-03-26T03:28:20.259Z,7.45
2023-03-26T03:30:47.238Z,7.61
2023-03-26T03:33:14.148Z,7.54
2023-03-26T03:35:41.969Z,7.67
2023-03-26T03:38:10.387Z,7.66
2023-03-26T03:40:37.247Z,7.77
2023-03-26T03:43:04.041Z,7.77
2023-03-26T03:45:31.009Z,7.74
2023-03-26T03:47:57.877Z,7.93
2023-03-26T03:50:25.315Z,7.47
2023-03-26T03:52:52.112Z,7.55
2023-03-26T03:55:19.419Z,7.58
2023-03-26T03:57:46.899Z,7.55
2023-03-26T04:00:14.936Z,7.62
2023-03-26T04:02:43.262Z,7.66
2023-03-26T04:05:11.779Z,7.61
2023-03-26T04:07:39.020Z,7.59
2023-03-26T04:10:07.758Z,7.55
2023-03-26T04:12:34.668Z,7.57
2023-03-26T04:15:01.880Z,7.42
2023-03-26T04:17:30.721Z,7.44
2023-03-26T04:19:57.890Z,7.38
2023-03-26T04:22:34.558Z,7.50
2023-03-26T04:25:02.653Z,7.45
2023-03-26T04:27:34.707Z,7.42
2023-03-26T04:30:02.167Z,7.35
2023-03-26T04:32:34.282Z,7.38
2023-03-26T04:35:04.247Z,7.43
2023-03-26T04:37:40.011Z,7.40
2023-03-26T04:40:17.401Z,7.41
2023-03-26T04:42:47.275Z,7.51
2023-03-26T04:45:17.702Z,7.52
2023-03-26T04:47:46.554Z,7.42
2023-03-26T04:50:13.698Z,7.50
2023-03-26T04:52:42.506Z,7.53
2023-03-26T04:55:23.307Z,7.81
2023-03-26T04:57:55.518Z,8.06
2023-03-26T05:00:22.724Z,8.44
2023-03-26T05:02:56.273Z,8.79
2023-03-26T05:05:24.384Z,8.97
2023-03-26T05:07:51.288Z,9.40
2023-03-26T05:10:20.804Z,9.69
2023-03-26T05:12:48.199Z,10.19
2023-03-26T05:15:16.183Z,10.61
2023-03-26T05:17:43.451Z,10.92
2023-03-26T05:20:20.856Z,11.22
2023-03-26T05:22:49.724Z,11.76
2023-03-26T05:25:17.701Z,11.49
2023-03-26T05:27:45.724Z,12.10
2023-03-26T05:30:20.492Z,12.08
2023-03-26T05:32:49.382Z,12.47
2023-03-26T05:35:19.792Z,12.68
2023-03-26T05:37:49.755Z,13.15
2023-03-26T05:40:17.368Z,13.85
2023-03-26T05:42:45.668Z,14.42
2023-03-26T05:45:14.203Z,14.95
2023-03-26T05:47:41.336Z,15.07
2023-03-26T05:50:09.340Z,15.07
2023-03-26T05:52:36.409Z,15.37
2023-03-26T05:55:03.997Z,15.80
2023-03-26T05:57:31.702Z,16.22
2023-03-26T05:59:58.628Z,16.64
2023-03-26T06:02:25.754Z,16.89
2023-03-26T06:04:52.773Z,17.44
2023-03-26T06:07:20.001Z,17.21
2023-03-26T06:09:46.933Z,17.67
2023-03-26T06:12:14.342Z,17.73
2023-03-26T06:14:43.122Z,18.16
2023-03-26T06:17:10.950Z,18.02
2023-03-26T06:19:38.085Z,18.67
2023-03-26T06:22:05.108Z,18.80
2023-03-26T06:24:32.546Z,19.09
2023-03-26T06:26:59.454Z,18.99
2023-03-26T06:29:26.466Z,19.08
2023-03-26T06:31:53.272Z,19.38
2023-03-26T06:34:20.064Z,19.40
2023-03-26T06:36:48.909Z,19.51
2023-03-26T06:39:16.317Z,19.90
2023-03-26T06:41:43.144Z,19.90
2023-03-26T06:44:11.437Z,19.69
2023-03-26T06:46:38.508Z,19.24
2023-03-26T06:49:05.641Z,19.98
2023-03-26T06:51:32.639Z,20.27
2023-03-26T06:53:59.432Z,19.72
2023-03-26T06:56:26.320Z,20.14
2023-03-26T06:58:53.197Z,19.76
2023-03-26T07:01:20.034Z,19.73
2023-03-26T07:03:47.016Z,20.24
2023-03-26T07:06:13.904Z,20.60
2023-03-26T07:08:40.996Z,20.75
2023-03-26T07:11:08.066Z,21.13
2023-03-26T07:13:34.944Z,20.92
2023-03-26T07:16:01.773Z,20.74
2023-03-26T07:18:28.689Z,21.06
2023-03-26T07:20:56.150Z,20.18
2023-03-26T07:23:23.442Z,20.51
2023-03-26T07:25:50.553Z,20.96
2023-03-26T07:29:04.710Z,20.72
2023-03-26T07:31:48.073Z,20.80
2023-03-26T07:34:39.693Z,21.35
2023-03-26T07:37:27.572Z,21.50
2023-03-26T07:39:54.368Z,21.93
2023-03-26T07:42:43.576Z,21.85
2023-03-26T07:45:17.640Z,22.30
2023-03-26T07:47:46.277Z,22.28
2023-03-26T07:50:18.998Z,22.15
2023-03-26T07:52:46.769Z,21.76
2023-03-26T07:55:15.508Z,22.18
2023-03-26T07:58:33.114Z,22.48
2023-03-26T08:01:10.580Z,22.30
2023-03-26T08:04:00.843Z,22.36
2023-03-26T08:06:55.476Z,21.98
2023-03-26T08:09:35.219Z,22.02
2023-03-26T08:12:24.918Z,21.52
2023-03-26T08:15:12.947Z,21.32
2023-03-26T08:17:49.309Z,21.78
2023-03-26T08:20:45.821Z,21.42
2023-03-26T08:23:24.861Z,21.66
2023-03-26T08:26:02.655Z,21.83
2023-03-26T08:28:55.771Z,21.23
2023-03-26T08:31:35.192Z,22.09
2023-03-26T08:34:02.382Z,22.09
2023-03-26T08:36:29.673Z,22.56
2023-03-26T08:38:57.761Z,21.38
2023-03-26T08:42:01.655Z,21.69
2023-03-26T08:44:51.604Z,21.65
2023-03-26T08:47:45.163Z,21.62
2023-03-26T08:50:48.769Z,21.41
2023-03-26T08:53:24.484Z,21.60
2023-03-26T08:56:03.411Z,21.63
2023-03-26T08:58:42.183Z,21.11
2023-03-26T09:01:27.655Z,21.19
2023-03-26T09:04:31.882Z,21.49
2023-03-26T09:07:14.864Z,21.58
2023-03-26T09:09:55.124Z,21.24
2023-03-26T09:12:52.610Z,21.34
2023-03-26T09:15:37.887Z,21.60
2023-03-26T09:18:38.628Z,21.88
2023-03-26T09:21:43.181Z,21.67
2023-03-26T09:24:27.906Z,21.45
2023-03-26T09:27:11.079Z,21.65
2023-03-26T09:30:17.805Z,21.46
2023-03-26T09:33:18.522Z,21.84
2023-03-26T09:36:21.899Z,22.08
2023-03-26T09:38:51.502Z,21.66
2023-03-26T09:41:41.502Z,22.09
2023-03-26T09:44:32.312Z,22.24
2023-03-26T09:47:24.551Z,22.28
2023-03-26T09:50:19.928Z,22.12
2023-03-26T09:53:05.689Z,22.11
2023-03-26T09:55:45.040Z,22.01
2023-03-26T09:58:31.467Z,20.85
2023-03-26T10:01:12.624Z,21.47
2023-03-26T10:04:13.280Z,20.80
2023-03-26T10:06:56.831Z,21.68
2023-03-26T10:09:45.619Z,21.21
2023-03-26T10:12:33.844Z,21.16
2023-03-26T10:15:19.012Z,21.52
2023-03-26T10:18:36.282Z,21.63
2023-03-26T10:21:27.486Z,21.31
2023-03-26T10:24:12.392Z,21.49
2023-03-26T10:27:09.134Z,21.55
2023-03-26T10:30:14.996Z,21.56
2023-03-26T10:33:02.761Z,21.63
2023-03-26T10:35:53.044Z,21.67
2023-03-26T10:38:53.829Z,21.45
2023-03-26T10:41:51.519Z,21.42
2023-03-26T10:44:36.564Z,21.56
2023-03-26T10:47:15.718Z,21.49
2023-03-26T10:50:00.442Z,21.51
2023-03-26T10:53:10.449Z,21.25
2023-03-26T10:55:46.888Z,21.26
2023-03-26T10:58:18.704Z,21.32
2023-03-26T11:01:11.965Z,21.33
2023-03-26T11:03:56.711Z,21.32
2023-03-26T11:06:42.430Z,21.46
2023-03-26T11:09:24.311Z,21.22
2023-03-26T11:11:56.516Z,21.53
2023-03-26T11:14:47.717Z,21.58
2023-03-26T11:18:07.286Z,21.70
2023-03-26T11:21:18.904Z,21.40
2023-03-26T11:24:08.766Z,21.30
2023-03-26T11:26:56.213Z,21.44
2023-03-26T11:29:33.798Z,21.26
2023-03-26T11:32:12.285Z,20.77
2023-03-26T11:34:46.282Z,20.19
2023-03-26T11:37:23.949Z,20.63
2023-03-26T11:39:56.480Z,20.58
2023-03-26T11:42:25.741Z,20.20
2023-03-26T11:44:57.538Z,20.77
2023-03-26T11:47:31.926Z,20.89
2023-03-26T11:50:02.408Z,20.30
2023-03-26T11:52:29.893Z,20.24
2023-03-26T11:54:58.689Z,20.45
2023-03-26T11:57:36.400Z,20.30
2023-03-26T12:00:18.130Z,20.68
2023-03-26T12:02:48.206Z,20.18
2023-03-26T12:05:26.664Z,20.24
2023-03-26T12:08:04.404Z,20.26
2023-03-26T12:10:39.561Z,20.79
2023-03-26T12:13:21.901Z,20.85
2023-03-26T12:15:49.651Z,20.89
2023-03-26T12:18:28.011Z,20.60
2023-03-26T12:21:09.395Z,21.05
2023-03-26T12:23:56.561Z,20.34
2023-03-26T12:26:49.060Z,20.82
2023-03-26T12:29:18.003Z,21.03
2023-03-26T12:32:03.222Z,21.21
2023-03-26T12:34:35.398Z,20.98
2023-03-26T12:37:04.892Z,21.00
2023-03-26T12:40:09.107Z,20.71
2023-03-26T12:44:49.665Z,20.68
2023-03-26T12:45:23.913Z,20.66
2023-03-26T12:48:01.640Z,20.48
2023-03-26T12:51:01.986Z,20.45
2023-03-26T12:53:51.586Z,20.46
2023-03-26T12:57:12.772Z,20.72
2023-03-26T12:59:51.771Z,20.42
2023-03-26T13:02:44.210Z,20.47
2023-03-26T13:05:39.994Z,20.40
2023-03-26T13:08:28.954Z,20.53
2023-03-26T13:11:18.591Z,20.52
2023-03-26T13:14:06.797Z,20.56
2023-03-26T13:16:56.955Z,20.81
2023-03-26T13:19:29.427Z,20.68
2023-03-26T13:22:25.984Z,20.83
2023-03-26T13:25:09.607Z,20.75
2023-03-26T13:27:55.327Z,20.84
2023-03-26T13:30:49.334Z,19.72
2023-03-26T13:33:23.127Z,20.20
2023-03-26T13:36:22.558Z,20.10
2023-03-26T13:39:12.325Z,19.66
2023-03-26T13:41:42.191Z,19.91
2023-03-26T13:44:17.973Z,19.99
2023-03-26T13:46:53.641Z,19.92
2023-03-26T13:50:00.718Z,20.15
2023-03-26T13:52:56.100Z,20.34
2023-03-26T13:55:34.315Z,19.76
2023-03-26T13:58:11.141Z,19.97
2023-03-26T14:01:05.598Z,19.81
2023-03-26T14:03:45.371Z,19.96
2023-03-26T14:06:54.176Z,20.07
2023-03-26T14:09:32.150Z,20.02
2023-03-26T14:12:23.291Z,20.30
2023-03-26T14:14:59.216Z,20.40
2023-03-26T14:17:42.964Z,20.40
2023-03-26T14:20:21.883Z,20.54
2023-03-26T14:22:54.587Z,20.32
2023-03-26T14:25:50.199Z,20.22
2023-03-26T14:28:36.516Z,20.16
2023-03-26T14:31:11.490Z,20.24
2023-03-26T14:34:07.547Z,20.28
2023-03-26T14:36:59.834Z,20.39
2023-03-26T14:39:37.652Z,20.42
2023-03-26T14:42:23.308Z,20.44
2023-03-26T14:45:05.617Z,20.26
2023-03-26T14:47:41.854Z,20.35
2023-03-26T14:50:31.569Z,20.24
2023-03-26T14:53:01.905Z,20.34
2023-03-26T14:55:40.901Z,20.19
2023-03-26T14:58:28.464Z,20.00
2023-03-26T15:01:19.851Z,19.88
2023-03-26T15:04:24.184Z,19.90
2023-03-26T15:07:03.293Z,19.99
2023-03-26T15:09:42.709Z,20.02
2023-03-26T15:12:21.372Z,19.82
2023-03-26T15:15:26.200Z,19.79
2023-03-26T15:18:06.369Z,19.53
2023-03-26T15:20:45.104Z,19.63
2023-03-26T15:23:49.144Z,19.43
2023-03-26T15:26:51.353Z,19.31
2023-03-26T15:29:40.139Z,19.24
2023-03-26T15:32:40.691Z,19.15
2023-03-26T15:35:41.535Z,19.12
2023-03-26T15:38:31.382Z,19.18
2023-03-26T15:40:58.150Z,19.26
2023-03-26T15:43:32.169Z,19.27
2023-03-26T15:46:11.027Z,19.29
2023-03-26T15:49:05.434Z,19.23
2023-03-26T15:52:07.354Z,19.03
2023-03-26T15:55:19.038Z,18.08
2023-03-26T15:57:57.088Z,17.85
2023-03-26T16:00:24.931Z,17.87
2023-03-26T16:03:13.010Z,17.74
2023-03-26T16:06:18.901Z,17.84
2023-03-26T16:09:08.142Z,17.47
2023-03-26T16:11:53.201Z,17.44
2023-03-26T16:14:35.339Z,17.19
2023-03-26T16:17:11.766Z,17.20
2023-03-26T16:19:41.238Z,17.13
2023-03-26T16:22:15.470Z,17.04
2023-03-26T16:24:49.269Z,16.95
2023-03-26T16:27:16.273Z,17.08
2023-03-26T16:30:01.538Z,16.78
2023-03-26T16:32:33.964Z,16.71
2023-03-26T16:35:18.640Z,16.84
2023-03-26T16:37:52.546Z,16.75
2023-03-26T16:40:22.732Z,16.77
2023-03-26T16:43:07.957Z,16.71
2023-03-26T16:45:50.526Z,16.72
2023-03-26T16:48:46.122Z,16.54
2023-03-26T16:51:17.294Z,16.59
2023-03-26T16:54:18.049Z,16.59
2023-03-26T16:57:07.018Z,16.59
2023-03-26T17:00:04.645Z,16.27
2023-03-26T17:02:46.514Z,16.30
2023-03-26T17:05:42.993Z,16.23
2023-03-26T17:08:35.520Z,16.22
2023-03-26T17:11:15.974Z,16.29
2023-03-26T17:14:01.223Z,16.31
2023-03-26T17:16:52.555Z,16.25
2023-03-26T17:19:56.443Z,16.23
2023-03-26T17:22:45.307Z,15.99
2023-03-26T17:25:25.201Z,15.93
2023-03-26T17:28:18.597Z,15.95
2023-03-26T17:31:24.200Z,15.76
2023-03-26T17:33:51.657Z,15.74
2023-03-26T17:36:41.349Z,15.75
2023-03-26T17:39:22.274Z,15.55
2023-03-26T17:41:50.690Z,15.62
2023-03-26T17:44:37.468Z,15.60
2023-03-26T17:47:13.404Z,15.68
2023-03-26T17:49:42.643Z,15.65
2023-03-26T17:52:21.531Z,15.57
2023-03-26T17:54:51.998Z,15.54
2023-03-26T17:57:42.987Z,15.61
2023-03-26T18:00:23.651Z,15.65
2023-03-26T18:02:56.455Z,15.62
2023-03-26T18:05:27.477Z,15.64
2023-03-26T18:08:00.299Z,15.67
2023-03-26T18:10:45.401Z,15.58
2023-03-26T18:13:18.169Z,15.58
2023-03-26T18:16:03.679Z,15.53
2023-03-26T18:18:41.219Z,15.47
2023-03-26T18:21:08.533Z,15.42
2023-03-26T18:23:44.319Z,15.40
2023-03-26T18:26:32.841Z,15.38
2023-03-26T18:29:37.212Z,15.68
2023-03-26T18:32:22.380Z,15.67
2023-03-26T18:35:20.905Z,15.60
2023-03-26T18:37:50.326Z,15.31
2023-03-26T18:40:20.326Z,15.41
2023-03-26T18:42:56.706Z,15.24
2023-03-26T18:45:23.420Z,15.10
2023-03-26T18:47:54.597Z,14.83
2023-03-26T18:50:27.393Z,14.86
2023-03-26T18:52:58.641Z,14.78
2023-03-26T18:55:30.974Z,14.68
2023-03-26T18:57:57.880Z,14.61
2023-03-26T19:00:30.460Z,14.60
2023-03-26T19:03:06.016Z,14.56
2023-03-26T19:05:36.716Z,14.41
2023-03-26T19:08:05.575Z,14.44
2023-03-26T19:10:33.444Z,14.52
2023-03-26T19:13:04.431Z,14.55
2023-03-26T19:15:34.658Z,14.47
2023-03-26T19:18:10.714Z,14.41
2023-03-26T19:20:44.214Z,14.38
2023-03-26T19:23:17.867Z,14.42
2023-03-26T19:25:48.791Z,14.45
2023-03-26T19:28:28.190Z,14.33
2023-03-26T19:31:07.159Z,14.35
2023-03-26T19:33:39.939Z,14.23
2023-03-26T19:36:12.859Z,14.23
2023-03-26T19:38:49.099Z,14.29
2023-03-26T19:41:22.877Z,14.20
2023-03-26T19:43:59.063Z,14.10
2023-03-26T19:46:28.503Z,14.12
2023-03-26T19:48:58.140Z,14.16
2023-03-26T19:51:34.572Z,14.13
2023-03-26T19:54:04.422Z,14.12
2023-03-26T19:56:31.722Z,14.00
2023-03-26T19:58:59.388Z,13.89
2023-03-26T20:01:28.738Z,13.75
2023-03-26T20:03:59.036Z,13.67
2023-03-26T20:06:41.804Z,13.71
2023-03-26T20:09:11.910Z,13.74
2023-03-26T20:11:39.926Z,13.55
2023-03-26T20:14:20.030Z,13.58
2023-03-26T20:16:47.051Z,13.66
2023-03-26T20:19:15.190Z,13.66
2023-03-26T20:21:42.822Z,13.54
2023-03-26T20:24:15.931Z,13.54
2023-03-26T20:26:43.875Z,13.60
2023-03-26T20:29:12.219Z,13.57
2023-03-26T20:31:41.942Z,13.55
2023-03-26T20:34:23.687Z,13.54
2023-03-26T20:36:56.140Z,13.47
2023-03-26T20:39:24.814Z,13.39
2023-03-26T20:41:53.348Z,13.34
2023-03-26T20:44:22.065Z,13.43
2023-03-26T20:46:50.197Z,13.47
2023-03-26T20:49:18.186Z,13.44
2023-03-26T20:51:47.023Z,13.32
2023-03-26T20:54:17.796Z,13.25
2023-03-26T20:56:49.450Z,13.20
2023-03-26T20:59:22.594Z,13.11
2023-03-26T21:01:50.601Z,12.93
2023-03-26T21:04:21.627Z,12.76
2023-03-26T21:06:49.408Z,12.64
2023-03-26T21:09:18.964Z,12.57
2023-03-26T21:12:01.033Z,12.46
2023-03-26T21:14:40.431Z,12.45
2023-03-26T21:17:14.886Z,12.32
2023-03-26T21:19:42.719Z,12.34
2023-03-26T21:22:28.952Z,12.41
2023-03-26T21:25:03.513Z,12.29
2023-03-26T21:28:11.420Z,12.33
2023-03-26T21:30:39.990Z,12.30
2023-03-26T21:33:07.362Z,12.33
2023-03-26T21:35:34.946Z,12.34
2023-03-26T21:38:04.663Z,12.37
2023-03-26T21:40:31.896Z,12.47
2023-03-26T21:42:59.038Z,12.37
2023-03-26T21:45:26.820Z,12.31
2023-03-26T21:47:54.452Z,12.32
2023-03-26T21:50:23.712Z,12.32
2023-03-26T21:52:51.976Z,12.37
2023-03-26T21:55:23.581Z,12.27
2023-03-26T21:58:05.160Z,12.27
2023-03-26T22:01:07.717Z,12.39
2023-03-26T22:04:13.458Z,12.34
2023-03-26T22:06:50.992Z,12.34
2023-03-26T22:09:23.342Z,12.33
2023-03-26T22:11:53.342Z,12.31
2023-03-26T22:14:20.811Z,12.34
2023-03-26T22:16:47.866Z,12.35
2023-03-26T22:19:14.871Z,12.32
2023-03-26T22:21:41.678Z,12.34
2023-03-26T22:24:09.468Z,12.46
2023-03-26T22:26:37.596Z,12.43
2023-03-26T22:29:05.609Z,12.45
2023-03-26T22:31:33.014Z,12.45
2023-03-26T22:34:00.129Z,12.47
2023-03-26T22:36:27.535Z,12.46
2023-03-26T22:38:54.827Z,12.41
2023-03-26T22:41:22.882Z,12.53
2023-03-26T22:43:52.241Z,12.53
2023-03-26T22:46:19.631Z,12.45
2023-03-26T22:48:48.414Z,12.23
2023-03-26T22:51:18.965Z,12.21
2023-03-26T22:53:46.122Z,12.26
2023-03-26T22:56:14.454Z,12.26
2023-03-26T22:58:42.371Z,12.34
2023-03-26T23:01:12.447Z,12.29
2023-03-26T23:03:40.332Z,12.22
2023-03-26T23:06:10.513Z,12.17
2023-03-26T23:08:38.289Z,11.99
2023-03-26T23:11:10.603Z,12.02
2023-03-26T23:13:37.594Z,12.08
2023-03-26T23:16:05.633Z,12.22
2023-03-26T23:18:33.341Z,12.22
2023-03-26T23:21:00.271Z,12.27
2023-03-26T23:23:30.138Z,12.27
2023-03-26T23:25:59.206Z,12.18
2023-03-26T23:28:26.784Z,12.17
2023-03-26T23:30:55.102Z,12.14
2023-03-26T23:33:24.368Z,12.02
2023-03-26T23:36:00.016Z,12.10
2023-03-26T23:38:43.640Z,12.18
2023-03-26T23:41:15.424Z,12.13
2023-03-26T23:43:53.754Z,12.15
2023-03-26T23:46:24.874Z,12.19
2023-03-26T23:48:52.500Z,12.30
2023-03-26T23:51:20.587Z,12.29
2023-03-26T23:53:49.434Z,12.38
2023-03-26T23:56:16.575Z,12.42
2023-03-26T23:58:43.882Z,12.43
